createdAt,value
2015-12-02T00:00:01.196Z,1013.5
2015-12-02T00:01:01.137Z,1013.5
2015-12-02T00:02:01.078Z,1013.6
2015-12-02T00:03:01.033Z,1013.4
2015-12-02T00:04:00.239Z,1013.5
2015-12-02T00:05:00.929Z,1013.4
2015-12-02T00:06:00.869Z,1013.4
2015-12-02T00:07:00.825Z,1013.5
2015-12-02T00:08:00.762Z,1013.5
2015-12-02T00:09:00.719Z,1013.5
2015-12-02T00:10:00.674Z,1013.5
2015-12-02T00:11:00.615Z,1013.4
2015-12-02T00:12:00.572Z,1013.3
2015-12-02T00:13:00.511Z,1013.5
2015-12-02T00:14:00.436Z,1013.4
2015-12-02T00:15:00.392Z,1013.4
2015-12-02T00:16:00.394Z,1013.4
2015-12-02T00:17:00.272Z,1013.4
2015-12-02T00:18:00.260Z,1013.4
2015-12-02T00:19:00.168Z,1013.3
2015-12-02T00:20:00.109Z,1013.3
2015-12-02T00:21:00.065Z,1013.3
2015-12-02T00:22:00.005Z,1013.3
2015-12-02T00:22:59.961Z,1013.5
2015-12-02T00:23:59.902Z,1013.5
2015-12-02T00:24:59.858Z,1013.3
2015-12-02T00:25:59.033Z,1013.5
2015-12-02T00:26:59.739Z,1013.5
2015-12-02T00:27:59.710Z,1013.3
2015-12-02T00:28:59.647Z,1013.4
2015-12-02T00:29:59.605Z,1013.4
2015-12-02T00:30:58.765Z,1013.5
2015-12-02T00:31:59.486Z,1013.3
2015-12-02T00:32:59.427Z,1013.4
2015-12-02T00:33:59.383Z,1013.5
2015-12-02T00:34:59.510Z,1013.5
2015-12-02T00:35:59.260Z,1013.4
2015-12-02T00:36:59.216Z,1013.4
2015-12-02T00:37:59.391Z,1013.3
2015-12-02T00:38:59.363Z,1013.4
2015-12-02T00:39:59.053Z,1013.3
2015-12-02T00:40:59.010Z,1013.4
2015-12-02T00:41:58.951Z,1013.5
2015-12-02T00:42:59.093Z,1013.5
2015-12-02T00:43:58.846Z,1013.5
2015-12-02T00:44:58.817Z,1013.6
2015-12-02T00:45:58.758Z,1013.5
2015-12-02T00:46:58.680Z,1013.5
2015-12-02T00:47:58.638Z,1013.6
2015-12-02T00:48:58.593Z,1013.5
2015-12-02T00:49:58.533Z,1013.7
2015-12-02T00:50:58.490Z,1013.7
2015-12-02T00:51:58.431Z,1013.7
2015-12-02T00:52:58.370Z,1013.6
2015-12-02T00:53:58.358Z,1013.7
2015-12-02T00:54:58.250Z,1013.6
2015-12-02T00:55:58.188Z,1013.6
2015-12-02T00:56:58.144Z,1013.6
2015-12-02T00:57:58.088Z,1013.7
2015-12-02T00:58:58.247Z,1013.6
2015-12-02T00:59:57.999Z,1013.6
2015-12-02T01:00:57.939Z,1013.6
2015-12-02T01:01:57.879Z,1013.7
2015-12-02T01:02:58.022Z,1013.6
2015-12-02T01:03:57.772Z,1013.6
2015-12-02T01:04:57.713Z,1013.7
2015-12-02T01:05:57.670Z,1013.6
2015-12-02T01:06:57.469Z,1013.6
2015-12-02T01:07:57.567Z,1013.6
2015-12-02T01:08:57.523Z,1013.7
2015-12-02T01:09:57.463Z,1013.6
2015-12-02T01:10:57.419Z,1013.7
2015-12-02T01:11:57.360Z,1013.6
2015-12-02T01:12:57.299Z,1013.5
2015-12-02T01:13:57.237Z,1013.6
2015-12-02T01:14:57.196Z,1013.6
2015-12-02T01:15:57.182Z,1013.6
2015-12-02T01:16:57.092Z,1013.6
2015-12-02T01:17:57.048Z,1013.6
2015-12-02T01:18:56.988Z,1013.5
2015-12-02T01:19:57.131Z,1013.5
2015-12-02T01:20:56.131Z,1013.5
2015-12-02T01:21:56.822Z,1013.6
2015-12-02T01:22:56.794Z,1013.6
2015-12-02T01:23:56.720Z,1013.6
2015-12-02T01:24:56.675Z,1013.6
2015-12-02T01:25:56.631Z,1013.7
2015-12-02T01:26:56.572Z,1013.7
2015-12-02T01:27:56.528Z,1013.7
2015-12-02T01:28:56.483Z,1013.6
2015-12-02T01:29:56.405Z,1013.7
2015-12-02T01:30:56.376Z,1013.7
2015-12-02T01:31:56.319Z,1013.7
2015-12-02T01:32:56.244Z,1013.8
2015-12-02T01:33:56.434Z,1013.7
2015-12-02T01:34:56.124Z,1013.7
2015-12-02T01:35:56.080Z,1013.7
2015-12-02T01:36:56.035Z,1013.7
2015-12-02T01:37:55.976Z,1013.7
2015-12-02T01:38:55.929Z,1013.8
2015-12-02T01:39:55.855Z,1013.6
2015-12-02T01:40:55.826Z,1013.7
2015-12-02T01:41:55.767Z,1013.8
2015-12-02T01:42:55.722Z,1013.6
2015-12-02T01:43:55.664Z,1013.8
2015-12-02T01:44:55.604Z,1013.8
2015-12-02T01:45:55.560Z,1013.8
2015-12-02T01:46:55.500Z,1013.7
2015-12-02T01:47:55.456Z,1013.7
2015-12-02T01:48:55.396Z,1013.7
2015-12-02T01:49:55.334Z,1013.7
2015-12-02T01:50:55.292Z,1013.6
2015-12-02T01:51:55.248Z,1013.6
2015-12-02T01:52:55.172Z,1013.8
2015-12-02T01:53:55.113Z,1013.6
2015-12-02T01:54:55.100Z,1013.7
2015-12-02T01:55:55.022Z,1013.7
2015-12-02T01:56:54.964Z,1013.6
2015-12-02T01:57:54.919Z,1013.6
2015-12-02T01:58:54.877Z,1013.7
2015-12-02T01:59:54.832Z,1013.7
2015-12-02T02:00:54.757Z,1013.8
2015-12-02T02:01:54.727Z,1013.7
2015-12-02T02:02:54.665Z,1013.8
2015-12-02T02:03:54.607Z,1013.8
2015-12-02T02:04:54.548Z,1013.7
2015-12-02T02:05:54.520Z,1013.7
2015-12-02T02:06:54.460Z,1013.8
2015-12-02T02:07:54.400Z,1013.7
2015-12-02T02:08:54.371Z,1013.8
2015-12-02T02:09:54.293Z,1013.8
2015-12-02T02:10:54.235Z,1013.7
2015-12-02T02:11:54.193Z,1013.7
2015-12-02T02:12:54.148Z,1013.8
2015-12-02T02:13:54.088Z,1013.7
2015-12-02T02:14:54.029Z,1013.8
2015-12-02T02:15:53.969Z,1013.8
2015-12-02T02:16:53.923Z,1013.7
2015-12-02T02:17:53.862Z,1013.8
2015-12-02T02:18:53.818Z,1013.8
2015-12-02T02:19:53.761Z,1013.7
2015-12-02T02:20:53.716Z,1013.7
2015-12-02T02:21:53.657Z,1013.9
2015-12-02T02:22:53.612Z,1013.8
2015-12-02T02:23:53.553Z,1013.8
2015-12-02T02:24:53.524Z,1013.8
2015-12-02T02:25:53.430Z,1013.8
2015-12-02T02:26:53.388Z,1013.8
2015-12-02T02:27:53.329Z,1013.8
2015-12-02T02:28:53.269Z,1013.9
2015-12-02T02:29:53.225Z,1013.8
2015-12-02T02:30:53.165Z,1013.8
2015-12-02T02:31:53.355Z,1013.9
2015-12-02T02:32:53.061Z,1013.9
2015-12-02T02:33:53.251Z,1013.8
2015-12-02T02:34:52.954Z,1013.8
2015-12-02T02:35:52.912Z,1014
2015-12-02T02:36:52.853Z,1013.9
2015-12-02T02:37:52.809Z,1013.7
2015-12-02T02:38:52.796Z,1013.8
2015-12-02T02:39:52.721Z,1013.8
2015-12-02T02:40:52.661Z,1013.7
2015-12-02T02:41:52.599Z,1013.7
2015-12-02T02:42:52.556Z,1013.7
2015-12-02T02:43:52.512Z,1013.7
2015-12-02T02:44:52.453Z,1013.8
2015-12-02T02:45:52.393Z,1013.8
2015-12-02T02:46:51.614Z,1013.6
2015-12-02T02:47:52.289Z,1013.8
2015-12-02T02:48:52.245Z,1013.8
2015-12-02T02:49:52.167Z,1013.7
2015-12-02T02:50:52.156Z,1013.7
2015-12-02T02:51:52.064Z,1013.8
2015-12-02T02:52:52.005Z,1013.7
2015-12-02T02:53:51.945Z,1013.8
2015-12-02T02:54:51.902Z,1013.7
2015-12-02T02:55:51.857Z,1013.9
2015-12-02T02:56:51.794Z,1013.9
2015-12-02T02:57:51.737Z,1013.8
2015-12-02T02:58:51.897Z,1013.8
2015-12-02T02:59:51.633Z,1013.8
2015-12-02T03:00:51.574Z,1013.8
2015-12-02T03:01:51.529Z,1014
2015-12-02T03:02:51.469Z,1013.8
2015-12-02T03:03:51.426Z,1013.8
2015-12-02T03:04:51.363Z,1013.9
2015-12-02T03:05:51.305Z,1013.9
2015-12-02T03:06:51.262Z,1013.8
2015-12-02T03:07:51.202Z,1013.8
2015-12-02T03:08:51.158Z,1013.9
2015-12-02T03:09:51.332Z,1013.7
2015-12-02T03:10:51.038Z,1013.8
2015-12-02T03:11:50.994Z,1013.8
2015-12-02T03:12:50.932Z,1013.7
2015-12-02T03:13:50.905Z,1013.8
2015-12-02T03:14:50.830Z,1013.8
2015-12-02T03:15:50.771Z,1013.9
2015-12-02T03:16:50.726Z,1013.9
2015-12-02T03:17:50.682Z,1014
2015-12-02T03:18:50.623Z,1013.8
2015-12-02T03:19:50.578Z,1013.7
2015-12-02T03:20:49.765Z,1013.9
2015-12-02T03:21:50.474Z,1013.7
2015-12-02T03:22:50.414Z,1013.8
2015-12-02T03:23:50.369Z,1013.8
2015-12-02T03:24:50.310Z,1013.7
2015-12-02T03:25:50.250Z,1013.8
2015-12-02T03:26:50.206Z,1013.8
2015-12-02T03:27:50.161Z,1013.8
2015-12-02T03:28:50.083Z,1013.8
2015-12-02T03:29:50.026Z,1013.8
2015-12-02T03:30:49.965Z,1013.8
2015-12-02T03:31:49.907Z,1013.9
2015-12-02T03:32:49.863Z,1013.8
2015-12-02T03:33:49.818Z,1013.8
2015-12-02T03:34:49.759Z,1013.7
2015-12-02T03:35:49.699Z,1013.8
2015-12-02T03:36:49.671Z,1013.8
2015-12-02T03:37:49.593Z,1013.9
2015-12-02T03:38:49.550Z,1013.9
2015-12-02T03:39:49.506Z,1013.9
2015-12-02T03:40:49.430Z,1014
2015-12-02T03:41:49.387Z,1013.9
2015-12-02T03:42:49.343Z,1013.9
2015-12-02T03:43:49.284Z,1013.9
2015-12-02T03:44:49.239Z,1014
2015-12-02T03:45:49.195Z,1013.8
2015-12-02T03:46:49.117Z,1013.8
2015-12-02T03:47:49.075Z,1013.9
2015-12-02T03:48:49.015Z,1013.9
2015-12-02T03:49:48.986Z,1013.9
2015-12-02T03:50:49.098Z,1013.9
2015-12-02T03:51:48.850Z,1013.9
2015-12-02T03:52:48.807Z,1014.1
2015-12-02T03:53:48.747Z,1013.9
2015-12-02T03:54:48.703Z,1013.9
2015-12-02T03:55:48.644Z,1014
2015-12-02T03:56:48.600Z,1014
2015-12-02T03:57:48.556Z,1014
2015-12-02T03:58:48.480Z,1013.9
2015-12-02T03:59:48.436Z,1013.9
2015-12-02T04:00:48.375Z,1013.9
2015-12-02T04:01:48.332Z,1014
2015-12-02T04:02:48.300Z,1014
2015-12-02T04:03:48.209Z,1013.9
2015-12-02T04:04:48.165Z,1013.9
2015-12-02T04:05:48.122Z,1014
2015-12-02T04:06:48.077Z,1014.1
2015-12-02T04:07:48.001Z,1013.8
2015-12-02T04:08:47.957Z,1014
2015-12-02T04:09:47.913Z,1014
2015-12-02T04:10:47.822Z,1014
2015-12-02T04:11:47.777Z,1014
2015-12-02T04:12:47.734Z,1014
2015-12-02T04:13:47.674Z,1014
2015-12-02T04:14:47.615Z,1014
2015-12-02T04:15:47.930Z,1014
2015-12-02T04:16:47.511Z,1014
2015-12-02T04:17:47.467Z,1014
2015-12-02T04:18:47.408Z,1014
2015-12-02T04:19:47.364Z,1014.1
2015-12-02T04:20:47.320Z,1014.1
2015-12-02T04:21:47.260Z,1014
2015-12-02T04:22:47.231Z,1014
2015-12-02T04:23:47.153Z,1013.9
2015-12-02T04:24:47.095Z,1013.9
2015-12-02T04:25:47.051Z,1014
2015-12-02T04:26:47.273Z,1014.1
2015-12-02T04:27:46.931Z,1014
2015-12-02T04:28:46.904Z,1014
2015-12-02T04:29:46.828Z,1014
2015-12-02T04:30:46.784Z,1014
2015-12-02T04:31:46.818Z,1014
2015-12-02T04:32:46.665Z,1014
2015-12-02T04:33:46.620Z,1014.1
2015-12-02T04:34:46.573Z,1014.2
2015-12-02T04:35:46.548Z,1014
2015-12-02T04:36:46.472Z,1014
2015-12-02T04:37:46.412Z,1014.1
2015-12-02T04:38:46.352Z,1014.1
2015-12-02T04:39:46.323Z,1014
2015-12-02T04:40:46.249Z,1014
2015-12-02T04:41:46.235Z,1014.1
2015-12-02T04:42:45.410Z,1014.2
2015-12-02T04:43:46.115Z,1014
2015-12-02T04:44:46.056Z,1014
2015-12-02T04:45:46.059Z,1014
2015-12-02T04:46:45.921Z,1014
2015-12-02T04:47:45.877Z,1014.1
2015-12-02T04:48:45.815Z,1014.1
2015-12-02T04:49:45.787Z,1014.1
2015-12-02T04:50:45.743Z,1014
2015-12-02T04:51:45.667Z,1014
2015-12-02T04:52:45.622Z,1014
2015-12-02T04:53:45.563Z,1014.1
2015-12-02T04:54:45.503Z,1014
2015-12-02T04:55:45.460Z,1014.1
2015-12-02T04:56:45.399Z,1014.2
2015-12-02T04:57:45.543Z,1014
2015-12-02T04:58:45.296Z,1014
2015-12-02T04:59:45.268Z,1014.2
2015-12-02T05:00:45.193Z,1014.1
2015-12-02T05:01:45.149Z,1014.2
2015-12-02T05:02:45.089Z,1014.1
2015-12-02T05:03:45.029Z,1014.1
2015-12-02T05:04:44.985Z,1014.1
2015-12-02T05:05:44.938Z,1014.2
2015-12-02T05:06:44.880Z,1014.1
2015-12-02T05:07:44.837Z,1014.2
2015-12-02T05:08:44.761Z,1014.3
2015-12-02T05:09:44.717Z,1014.2
2015-12-02T05:10:44.673Z,1014.3
2015-12-02T05:11:44.628Z,1014.2
2015-12-02T05:12:44.568Z,1014
2015-12-02T05:13:44.509Z,1014.2
2015-12-02T05:14:44.478Z,1014.2
2015-12-02T05:15:44.421Z,1014.2
2015-12-02T05:16:44.361Z,1014.3
2015-12-02T05:17:44.301Z,1014.2
2015-12-02T05:18:44.242Z,1014.1
2015-12-02T05:19:44.212Z,1014.2
2015-12-02T05:20:44.150Z,1014.2
2015-12-02T05:21:44.075Z,1014.3
2015-12-02T05:22:44.031Z,1014.2
2015-12-02T05:23:43.971Z,1014.3
2015-12-02T05:24:43.912Z,1014.3
2015-12-02T05:25:43.868Z,1014.2
2015-12-02T05:26:43.824Z,1014.2
2015-12-02T05:27:43.764Z,1014.2
2015-12-02T05:28:43.704Z,1014.2
2015-12-02T05:29:43.660Z,1014.3
2015-12-02T05:30:43.601Z,1014.2
2015-12-02T05:31:43.556Z,1014.3
2015-12-02T05:32:43.497Z,1014.2
2015-12-02T05:33:43.454Z,1014.3
2015-12-02T05:34:43.394Z,1014.2
2015-12-02T05:35:43.335Z,1014.3
2015-12-02T05:36:43.290Z,1014.4
2015-12-02T05:37:43.229Z,1014.3
2015-12-02T05:38:43.185Z,1014.3
2015-12-02T05:39:43.329Z,1014.3
2015-12-02T05:40:43.063Z,1014.4
2015-12-02T05:41:43.021Z,1014.3
2015-12-02T05:42:43.399Z,1014.3
2015-12-02T05:43:42.949Z,1014.4
2015-12-02T05:44:42.874Z,1014.5
2015-12-02T05:45:42.829Z,1014.4
2015-12-02T05:46:42.770Z,1014.5
2015-12-02T05:47:42.710Z,1014.4
2015-12-02T05:48:42.648Z,1014.5
2015-12-02T05:49:42.604Z,1014.4
2015-12-02T05:50:42.543Z,1014.5
2015-12-02T05:51:42.500Z,1014.6
2015-12-02T05:52:42.456Z,1014.5
2015-12-02T05:53:42.396Z,1014.5
2015-12-02T05:54:42.367Z,1014.5
2015-12-02T05:55:42.294Z,1014.7
2015-12-02T05:56:42.250Z,1014.5
2015-12-02T05:57:42.190Z,1014.5
2015-12-02T05:58:42.146Z,1014.7
2015-12-02T05:59:42.086Z,1014.8
2015-12-02T06:00:42.042Z,1014.7
2015-12-02T06:01:41.980Z,1014.7
2015-12-02T06:02:41.921Z,1014.7
2015-12-02T06:03:41.876Z,1014.9
2015-12-02T06:04:41.801Z,1014.8
2015-12-02T06:05:41.773Z,1014.8
2015-12-02T06:06:41.713Z,1014.8
2015-12-02T06:07:41.654Z,1014.8
2015-12-02T06:08:41.593Z,1014.8
2015-12-02T06:09:41.550Z,1014.8
2015-12-02T06:10:41.490Z,1014.8
2015-12-02T06:11:41.446Z,1014.9
2015-12-02T06:12:41.387Z,1014.8
2015-12-02T06:13:41.342Z,1014.9
2015-12-02T06:14:41.298Z,1014.9
2015-12-02T06:15:41.426Z,1014.9
2015-12-02T06:16:41.178Z,1014.8
2015-12-02T06:17:41.150Z,1014.9
2015-12-02T06:18:41.106Z,1014.9
2015-12-02T06:19:41.031Z,1014.8
2015-12-02T06:20:40.986Z,1014.8
2015-12-02T06:21:40.080Z,1014.7
2015-12-02T06:22:40.864Z,1014.8
2015-12-02T06:23:40.054Z,1014.8
2015-12-02T06:24:40.791Z,1014.8
2015-12-02T06:25:40.763Z,1014.8
2015-12-02T06:26:40.674Z,1014.9
2015-12-02T06:27:40.599Z,1014.9
2015-12-02T06:28:40.555Z,1014.9
2015-12-02T06:29:40.495Z,1014.8
2015-12-02T06:30:40.450Z,1014.9
2015-12-02T06:31:40.406Z,1015
2015-12-02T06:32:40.344Z,1014.9
2015-12-02T06:33:40.302Z,1015
2015-12-02T06:34:40.257Z,1014.9
2015-12-02T06:35:40.199Z,1014.9
2015-12-02T06:36:40.155Z,1015
2015-12-02T06:37:39.376Z,1015
2015-12-02T06:38:40.034Z,1015
2015-12-02T06:39:39.990Z,1015
2015-12-02T06:40:40.118Z,1015
2015-12-02T06:41:39.868Z,1015.1
2015-12-02T06:42:39.856Z,1014.9
2015-12-02T06:43:40.000Z,1015.1
2015-12-02T06:44:39.909Z,1015.1
2015-12-02T06:45:39.648Z,1015
2015-12-02T06:46:39.603Z,1015
2015-12-02T06:47:39.558Z,1015
2015-12-02T06:48:39.701Z,1015
2015-12-02T06:49:39.642Z,1015.1
2015-12-02T06:50:39.392Z,1015
2015-12-02T06:51:39.334Z,1015.1
2015-12-02T06:52:39.556Z,1015.1
2015-12-02T06:53:39.231Z,1015.1
2015-12-02T06:54:39.187Z,1015.2
2015-12-02T06:55:39.127Z,1015.2
2015-12-02T06:56:39.067Z,1015.1
2015-12-02T06:57:39.022Z,1015.2
2015-12-02T06:58:38.978Z,1015.2
2015-12-02T06:59:39.121Z,1015.2
2015-12-02T07:00:39.062Z,1015.1
2015-12-02T07:01:38.812Z,1015.2
2015-12-02T07:02:38.753Z,1015.3
2015-12-02T07:03:38.944Z,1015.4
2015-12-02T07:04:38.665Z,1015.3
2015-12-02T07:05:38.652Z,1015.3
2015-12-02T07:06:38.561Z,1015.4
2015-12-02T07:07:38.501Z,1015.5
2015-12-02T07:08:38.441Z,1015.4
2015-12-02T07:09:38.397Z,1015.4
2015-12-02T07:10:38.338Z,1015.4
2015-12-02T07:11:38.293Z,1015.3
2015-12-02T07:12:38.233Z,1015.5
2015-12-02T07:13:38.189Z,1015.5
2015-12-02T07:14:38.131Z,1015.4
2015-12-02T07:15:38.087Z,1015.4
2015-12-02T07:16:38.026Z,1015.3
2015-12-02T07:17:37.983Z,1015.5
2015-12-02T07:18:37.906Z,1015.5
2015-12-02T07:19:37.863Z,1015.4
2015-12-02T07:20:37.831Z,1015.5
2015-12-02T07:21:37.788Z,1015.5
2015-12-02T07:22:37.682Z,1015.4
2015-12-02T07:23:37.638Z,1015.6
2015-12-02T07:24:37.594Z,1015.3
2015-12-02T07:25:37.770Z,1015.6
2015-12-02T07:26:37.491Z,1015.6
2015-12-02T07:27:37.431Z,1015.5
2015-12-02T07:28:37.372Z,1015.5
2015-12-02T07:29:37.515Z,1015.5
2015-12-02T07:30:37.327Z,1015.6
2015-12-02T07:31:37.223Z,1015.6
2015-12-02T07:32:37.397Z,1015.5
2015-12-02T07:33:37.118Z,1015.5
2015-12-02T07:34:37.059Z,1015.5
2015-12-02T07:35:37.015Z,1015.6
2015-12-02T07:36:36.954Z,1015.5
2015-12-02T07:37:36.894Z,1015.5
2015-12-02T07:38:36.851Z,1015.6
2015-12-02T07:39:36.791Z,1015.6
2015-12-02T07:40:36.747Z,1015.6
2015-12-02T07:41:36.687Z,1015.6
2015-12-02T07:42:36.643Z,1015.6
2015-12-02T07:43:36.583Z,1015.7
2015-12-02T07:44:36.539Z,1015.7
2015-12-02T07:45:36.479Z,1015.7
2015-12-02T07:46:36.622Z,1015.7
2015-12-02T07:47:36.375Z,1015.7
2015-12-02T07:48:36.316Z,1015.7
2015-12-02T07:49:36.271Z,1015.7
2015-12-02T07:50:36.211Z,1015.7
2015-12-02T07:51:36.167Z,1015.8
2015-12-02T07:52:36.123Z,1015.6
2015-12-02T07:53:36.283Z,1015.8
2015-12-02T07:54:36.020Z,1015.6
2015-12-02T07:55:35.960Z,1015.7
2015-12-02T07:56:35.900Z,1015.7
2015-12-02T07:57:35.840Z,1015.7
2015-12-02T07:58:35.793Z,1015.6
2015-12-02T07:59:35.747Z,1015.7
2015-12-02T08:00:35.667Z,1015.7
2015-12-02T08:01:35.591Z,1015.8
2015-12-02T08:02:35.531Z,1015.7
2015-12-02T08:03:35.468Z,1015.8
2015-12-02T08:04:35.407Z,1015.9
2015-12-02T08:05:35.334Z,1015.8
2015-12-02T08:06:35.283Z,1015.8
2015-12-02T08:07:35.218Z,1015.9
2015-12-02T08:08:35.168Z,1015.9
2015-12-02T08:09:35.103Z,1015.8
2015-12-02T08:10:35.057Z,1015.8
2015-12-02T08:11:34.995Z,1015.9
2015-12-02T08:12:34.932Z,1015.9
2015-12-02T08:13:34.887Z,1015.9
2015-12-02T08:14:35.013Z,1016
2015-12-02T08:15:34.765Z,1015.8
2015-12-02T08:16:34.704Z,1015.9
2015-12-02T08:17:34.644Z,1016
2015-12-02T08:18:34.599Z,1015.9
2015-12-02T08:19:33.802Z,1016
2015-12-02T08:20:34.493Z,1015.8
2015-12-02T08:21:34.481Z,1016.1
2015-12-02T08:22:34.390Z,1016
2015-12-02T08:23:34.329Z,1016.1
2015-12-02T08:24:34.286Z,1016
2015-12-02T08:25:34.223Z,1016
2015-12-02T08:26:34.164Z,1016
2015-12-02T08:27:34.122Z,1016.1
2015-12-02T08:28:34.079Z,1016.2
2015-12-02T08:29:34.003Z,1016.1
2015-12-02T08:30:33.802Z,1016.1
2015-12-02T08:31:33.898Z,1016.2
2015-12-02T08:32:33.839Z,1016.2
2015-12-02T08:33:33.997Z,1016.2
2015-12-02T08:34:33.747Z,1016.3
2015-12-02T08:35:33.690Z,1016.1
2015-12-02T08:36:32.896Z,1016.3
2015-12-02T08:37:33.586Z,1016.2
2015-12-02T08:38:33.542Z,1016.2
2015-12-02T08:39:33.483Z,1016.2
2015-12-02T08:40:33.423Z,1016.1
2015-12-02T08:41:33.379Z,1016.2
2015-12-02T08:42:33.348Z,1016.1
2015-12-02T08:43:33.273Z,1016.2
2015-12-02T08:44:33.215Z,1016.3
2015-12-02T08:45:33.186Z,1016.2
2015-12-02T08:46:33.126Z,1016.2
2015-12-02T08:47:33.066Z,1016.3
2015-12-02T08:48:33.037Z,1016.3
2015-12-02T08:49:32.959Z,1016.4
2015-12-02T08:50:32.899Z,1016.3
2015-12-02T08:51:32.859Z,1016.5
2015-12-02T08:52:32.799Z,1016.4
2015-12-02T08:53:32.740Z,1016.5
2015-12-02T08:54:32.804Z,1016.6
2015-12-02T08:55:32.634Z,1016.6
2015-12-02T08:56:32.575Z,1016.5
2015-12-02T08:57:32.528Z,1016.6
2015-12-02T08:58:32.470Z,1016.6
2015-12-02T08:59:32.280Z,1016.6
2015-12-02T09:00:32.552Z,1016.5
2015-12-02T09:01:32.305Z,1016.6
2015-12-02T09:02:32.261Z,1016.6
2015-12-02T09:03:32.198Z,1016.6
2015-12-02T09:04:32.140Z,1016.6
2015-12-02T09:05:31.362Z,1016.6
2015-12-02T09:06:32.037Z,1016.7
2015-12-02T09:07:31.978Z,1016.6
2015-12-02T09:08:31.934Z,1016.6
2015-12-02T09:09:31.890Z,1016.7
2015-12-02T09:10:31.812Z,1016.8
2015-12-02T09:11:31.767Z,1016.8
2015-12-02T09:12:31.707Z,1016.8
2015-12-02T09:13:31.666Z,1016.8
2015-12-02T09:14:31.605Z,1016.8
2015-12-02T09:15:31.561Z,1016.8
2015-12-02T09:16:31.502Z,1016.9
2015-12-02T09:17:31.458Z,1017
2015-12-02T09:18:31.600Z,1016.9
2015-12-02T09:19:31.350Z,1017
2015-12-02T09:20:31.292Z,1016.9
2015-12-02T09:21:31.232Z,1016.8
2015-12-02T09:22:31.188Z,1016.8
2015-12-02T09:23:31.145Z,1017
2015-12-02T09:24:31.100Z,1017
2015-12-02T09:25:31.040Z,1016.9
2015-12-02T09:26:30.981Z,1017
2015-12-02T09:27:30.937Z,1017.1
2015-12-02T09:28:30.877Z,1017
2015-12-02T09:29:30.834Z,1016.9
2015-12-02T09:30:30.758Z,1016.8
2015-12-02T09:31:30.730Z,1017
2015-12-02T09:32:30.670Z,1016.9
2015-12-02T09:33:30.610Z,1016.9
2015-12-02T09:34:30.563Z,1016.9
2015-12-02T09:35:30.537Z,1016.9
2015-12-02T09:36:29.680Z,1017.1
2015-12-02T09:37:30.417Z,1017
2015-12-02T09:38:30.342Z,1017
2015-12-02T09:39:30.282Z,1017
2015-12-02T09:40:30.238Z,1017.1
2015-12-02T09:41:30.194Z,1017
2015-12-02T09:42:30.131Z,1017
2015-12-02T09:43:30.087Z,1017
2015-12-02T09:44:30.029Z,1017
2015-12-02T09:45:29.984Z,1016.9
2015-12-02T09:46:29.923Z,1017
2015-12-02T09:47:29.865Z,1017
2015-12-02T09:48:29.804Z,1017
2015-12-02T09:49:29.762Z,1017
2015-12-02T09:50:29.733Z,1017
2015-12-02T09:51:29.658Z,1017
2015-12-02T09:52:29.599Z,1017
2015-12-02T09:53:29.555Z,1017.1
2015-12-02T09:54:29.494Z,1017.1
2015-12-02T09:55:29.447Z,1017
2015-12-02T09:56:29.406Z,1017
2015-12-02T09:57:29.345Z,1017
2015-12-02T09:58:29.286Z,1017
2015-12-02T09:59:29.241Z,1017
2015-12-02T10:00:29.181Z,1017
2015-12-02T10:01:29.122Z,1017
2015-12-02T10:02:29.078Z,1016.9
2015-12-02T10:03:29.034Z,1016.9
2015-12-02T10:04:28.973Z,1017
2015-12-02T10:05:28.930Z,1017
2015-12-02T10:06:28.886Z,1017
2015-12-02T10:07:28.826Z,1017
2015-12-02T10:08:28.766Z,1017
2015-12-02T10:09:28.722Z,1017.1
2015-12-02T10:10:28.661Z,1017
2015-12-02T10:11:28.617Z,1016.9
2015-12-02T10:12:28.574Z,1017
2015-12-02T10:13:28.529Z,1017
2015-12-02T10:14:28.439Z,1017.1
2015-12-02T10:15:28.394Z,1017
2015-12-02T10:16:28.335Z,1017.1
2015-12-02T10:17:28.275Z,1017.2
2015-12-02T10:18:28.215Z,1017
2015-12-02T10:19:28.374Z,1017
2015-12-02T10:20:28.124Z,1017.1
2015-12-02T10:21:28.083Z,1017.1
2015-12-02T10:22:28.022Z,1017.1
2015-12-02T10:23:27.963Z,1017.1
2015-12-02T10:24:27.903Z,1017.1
2015-12-02T10:25:27.860Z,1017.2
2015-12-02T10:26:27.799Z,1017.1
2015-12-02T10:27:27.755Z,1017.1
2015-12-02T10:28:27.693Z,1017.2
2015-12-02T10:29:27.633Z,1017.1
2015-12-02T10:30:27.588Z,1017.1
2015-12-02T10:31:27.529Z,1017.2
2015-12-02T10:32:27.485Z,1017.1
2015-12-02T10:33:27.425Z,1017
2015-12-02T10:34:27.443Z,1017.2
2015-12-02T10:35:27.321Z,1017.1
2015-12-02T10:36:27.277Z,1017.1
2015-12-02T10:37:27.232Z,1017.1
2015-12-02T10:38:27.188Z,1017
2015-12-02T10:39:27.128Z,1017.1
2015-12-02T10:40:27.054Z,1017.1
2015-12-02T10:41:27.041Z,1017.1
2015-12-02T10:42:26.965Z,1017.2
2015-12-02T10:43:26.906Z,1017.1
2015-12-02T10:44:26.862Z,1017.2
2015-12-02T10:45:26.801Z,1017.2
2015-12-02T10:46:26.742Z,1017.1
2015-12-02T10:47:26.713Z,1017.2
2015-12-02T10:48:26.637Z,1017.1
2015-12-02T10:49:26.595Z,1017.1
2015-12-02T10:50:26.395Z,1017
2015-12-02T10:51:26.475Z,1017.1
2015-12-02T10:52:26.432Z,1017.2
2015-12-02T10:53:26.387Z,1017.2
2015-12-02T10:54:26.324Z,1017.1
2015-12-02T10:55:26.265Z,1017
2015-12-02T10:56:26.224Z,1017.2
2015-12-02T10:57:26.180Z,1017.1
2015-12-02T10:58:26.119Z,1017
2015-12-02T10:59:26.075Z,1017.1
2015-12-02T11:00:26.016Z,1017.1
2015-12-02T11:01:25.971Z,1017.1
2015-12-02T11:02:25.924Z,1017.1
2015-12-02T11:03:25.849Z,1017.1
2015-12-02T11:04:25.807Z,1017.1
2015-12-02T11:05:25.763Z,1017.1
2015-12-02T11:06:25.719Z,1017.2
2015-12-02T11:07:25.628Z,1017.2
2015-12-02T11:08:25.584Z,1017.1
2015-12-02T11:09:25.521Z,1017.1
2015-12-02T11:10:25.478Z,1017.1
2015-12-02T11:11:25.423Z,1017.2
2015-12-02T11:12:25.365Z,1017.2
2015-12-02T11:13:25.305Z,1017
2015-12-02T11:14:25.276Z,1017.1
2015-12-02T11:15:25.216Z,1017
2015-12-02T11:16:25.157Z,1017.1
2015-12-02T11:17:25.110Z,1017
2015-12-02T11:18:25.050Z,1017.1
2015-12-02T11:19:25.009Z,1017.1
2015-12-02T11:20:24.965Z,1017.1
2015-12-02T11:21:24.921Z,1017.1
2015-12-02T11:22:24.845Z,1017
2015-12-02T11:23:24.785Z,1017.1
2015-12-02T11:24:24.741Z,1017.1
2015-12-02T11:25:24.679Z,1017.1
2015-12-02T11:26:24.651Z,1016.9
2015-12-02T11:27:24.591Z,1017.1
2015-12-02T11:28:24.376Z,1017.1
2015-12-02T11:29:24.489Z,1017.1
2015-12-02T11:30:24.429Z,1017.1
2015-12-02T11:31:24.384Z,1017.2
2015-12-02T11:32:24.325Z,1017.1
2015-12-02T11:33:24.281Z,1017.1
2015-12-02T11:34:24.234Z,1017.1
2015-12-02T11:35:24.190Z,1017.2
2015-12-02T11:36:24.133Z,1017.2
2015-12-02T11:37:24.073Z,1017.1
2015-12-02T11:38:24.044Z,1017.2
2015-12-02T11:39:23.969Z,1017.2
2015-12-02T11:40:23.909Z,1017.2
2015-12-02T11:41:23.864Z,1017.2
2015-12-02T11:42:23.805Z,1017.2
2015-12-02T11:43:23.789Z,1017.2
2015-12-02T11:44:23.699Z,1017.2
2015-12-02T11:45:23.640Z,1017.3
2015-12-02T11:46:23.596Z,1017.2
2015-12-02T11:47:23.537Z,1017.2
2015-12-02T11:48:23.493Z,1017.2
2015-12-02T11:49:23.433Z,1017.2
2015-12-02T11:50:23.389Z,1017.2
2015-12-02T11:51:23.345Z,1017.2
2015-12-02T11:52:23.285Z,1017.1
2015-12-02T11:53:23.238Z,1017.3
2015-12-02T11:54:23.181Z,1017.4
2015-12-02T11:55:23.121Z,1017.4
2015-12-02T11:56:23.077Z,1017.3
2015-12-02T11:57:23.017Z,1017.3
2015-12-02T11:58:22.973Z,1017.2
2015-12-02T11:59:22.945Z,1017.3
2015-12-02T12:00:22.853Z,1017.3
2015-12-02T12:01:22.809Z,1017.4
2015-12-02T12:02:22.762Z,1017.3
2015-12-02T12:03:22.703Z,1017.2
2015-12-02T12:04:22.659Z,1017.3
2015-12-02T12:05:22.818Z,1017.3
2015-12-02T12:06:22.555Z,1017.5
2015-12-02T12:07:22.495Z,1017.4
2015-12-02T12:08:22.451Z,1017.3
2015-12-02T12:09:22.411Z,1017.3
2015-12-02T12:10:22.336Z,1017.3
2015-12-02T12:11:22.291Z,1017.2
2015-12-02T12:12:22.247Z,1017.2
2015-12-02T12:13:22.189Z,1017.3
2015-12-02T12:14:22.143Z,1017.2
2015-12-02T12:15:22.085Z,1017.2
2015-12-02T12:16:22.025Z,1017.2
2015-12-02T12:17:21.981Z,1017.2
2015-12-02T12:18:21.953Z,1017.4
2015-12-02T12:19:21.878Z,1017.3
2015-12-02T12:20:21.833Z,1017.4
2015-12-02T12:21:21.770Z,1017.3
2015-12-02T12:22:21.728Z,1017.3
2015-12-02T12:23:21.856Z,1017.4
2015-12-02T12:24:21.608Z,1017.3
2015-12-02T12:25:21.752Z,1017.4
2015-12-02T12:26:21.489Z,1017.4
2015-12-02T12:27:21.445Z,1017.3
2015-12-02T12:28:21.401Z,1017.4
2015-12-02T12:29:21.341Z,1017.4
2015-12-02T12:30:21.297Z,1017.4
2015-12-02T12:31:21.237Z,1017.3
2015-12-02T12:32:21.396Z,1017.3
2015-12-02T12:33:21.130Z,1017.3
2015-12-02T12:34:21.074Z,1017.4